This is the latest recevied weather packets stored in our database for station/object IZ1HKE-13. If no packets are shown the sender has not sent any weather packets the latest 1 day(s).
| Time | Temp. | Humidity | Pressure | Rain* | Wind** | Luminosity | Snow |
|---|---|---|---|---|---|---|---|
| 1778068642 | 20° C | 58% | 1013.5 hPa | 0 mm | - | 836 W/m² | - |
| 1778065204 | 19.44° C | 62% | 1013.9 hPa | 0 mm | - | 837 W/m² | - |
| 1778063829 | 19.44° C | 63% | 1013.8 hPa | 0 mm | - | 879 W/m² | - |
| 1778063141 | 20° C | 59% | 1013.8 hPa | 0 mm | - | 857 W/m² | - |
| 1778062454 | 19.44° C | 62% | 1013.8 hPa | 0 mm | - | 844 W/m² | - |
| 1778061079 | 19.44° C | 62% | 1013.8 hPa | 0 mm | - | 737 W/m² | - |
| 1778060391 | 20° C | 69% | 1013.9 hPa | 0 mm | - | 746 W/m² | - |
| 1778059704 | 20.56° C | 67% | 1013.9 hPa | 0 mm | - | 203 W/m² | - |
| 1778058329 | 18.33° C | 78% | 1014 hPa | 0 mm | - | 710 W/m² | - |
| 1778056954 | 17.22° C | 79% | 1014.1 hPa | 0 mm | - | 648 W/m² | - |
| 1778055579 | 16.11° C | 90% | 1014.3 hPa | 0 mm | - | 285 W/m² | - |
| 1778054204 | 15.56° C | 91% | 1014.5 hPa | 0 mm | - | 415 W/m² | - |
| 1778052829 | 12.78° C | 99% | 1014.8 hPa | 0.25 mm | - | 435 W/m² | - |
| 1778051454 | 12.78° C | 99% | 1014.2 hPa | 1.52 mm | - | 84 W/m² | - |
| 1778050079 | 12.78° C | 99% | 1013.9 hPa | 2.54 mm | - | 42 W/m² | - |
| 1778045254 | 12.22° C | 99% | 1014.8 hPa | 0 mm | - | 68 W/m² | - |
| 1778044567 | 12.22° C | 99% | 1014.5 hPa | 0 mm | - | 45 W/m² | - |
| 1778043879 | 12.22° C | 99% | 1014.6 hPa | 0 mm | - | 42 W/m² | - |
| 1778043192 | 11.67° C | 99% | 1014.8 hPa | 0 mm | - | 30 W/m² | - |
| 1778042504 | 11.67° C | 99% | 1014.8 hPa | 0 mm | - | 28 W/m² | - |
| 1778041817 | 11.67° C | 99% | 1015.1 hPa | 0 mm | - | 8 W/m² | - |
| 1778040442 | 11.67° C | 99% | 1015.6 hPa | 0 mm | - | 1 W/m² | - |
| 1778039754 | 11.67° C | 99% | 1015.5 hPa | 0 mm | - | 0 W/m² | - |
| 1778039067 | 11.67° C | 99% | 1015.5 hPa | 0 mm | - | 0 W/m² | - |
| 1778037692 | 11.67° C | 99% | 1015.5 hPa | 0.25 mm | - | 0 W/m² | - |
* Rain latest hour (hover to see other rain measurements)
** Current wind speed in m/s (hover to see current wind gust speed)